Kezdőlap
METAR-TAF:

METAR-TAF

Repülőterek :

Pago Pago, Az Amerikai Egyesült Államok lakatlan külbirtokai

földrajzi szélesség: 14-20S, földrajzi hosszúság: 170-43W, magasság: 3 m

Jelenlegi meteorológiai megfigyelések

A jelentés 52 perccel ezelõtt készült, 04:50 UTC
Kelet-délkeleti szél 9 kt
Hőmérséklet 30°C
Páratartalom 84%
Légköri nyomás 1011 hPa
Látótávolság: 19.3 km
Szórványos felhőzet 1700 lábon

METAR: NSTU 140450Z 11009KT 12SM SCT017 30/27 A2984 RMK SLP107 T03010266

Idő: 18:42 (05:42 UTC)

Előrejelzés

A jelentés 21 perccel ezelõtt készült, 05:21 UTC
Az előrejelzés 14-én 06 óra UTC és 15-én 06 óra UTC között érvényes
Keleti szél 11 kt
Látótávolság: 10 km
Szórványos felhőzet 1500 lábon
Szórványos felhőzet 4000 lábon
Záporok a közelben,

TAF: NSTU 140521Z 1406/1506 10011KT P6SM VCSH SCT015 SCT040

Meteorológiai megfigyelések és előrejelzések több, mint 4000 repülőtéren (METAR és TAF jelentéseket).

A térképen piros és sárga pontok jelzik az elérhető meteorológiai állomásokat.

Mozgassa az egeret a pont fölött, hogy megjelenjen az állomás neve.

Azután kattintson az időjárási megfigyelések és előrejelzések megtekintéséhez.

A térkép megváltoztatása: kattintson a fekete keresztel jelölt zöld gombra ráközelítéshez, a vonallal jelölt zöld gombra távolításhoz, vagy a zöld nyilakra a szomszédos térképek eléréséhez.


METAR-TAF: